Time;durP1;ratioP1;P1;durP2;ratioP2;P2;SDS_P1;SDS_P2;PMS_P1;PMS_P2;Temp;Humidity;BMP_temperature;BMP_pressure;BME280_temperature;BME280_humidity;BME280_pressure;Samples;Min_cycle;Max_cycle;Signal;HPM_P1;HPM_P2
2021/04/11 00:01:29;;;;;;;;;;;;;;;8.25;71.56;93207.03;5113834;28;19924;-75
2021/04/11 00:03:55;;;;;;;;;;;;;;;8.11;72.47;93212.22;5114155;28;19949;-75
2021/04/11 00:06:21;;;;;;;;;;;;;;;8.00;73.70;93205.00;5114102;28;20374;-76
2021/04/11 00:08:47;;;;;;;;;;;;;;;8.08;72.52;93212.63;5114058;28;19934;-76
2021/04/11 00:11:13;;;;;;;;;;;;;;;8.09;73.30;93206.44;5113870;28;19931;-76
2021/04/11 00:13:39;;;;;;;;;;;;;;;8.41;71.61;93203.19;5113760;28;19924;-75
2021/04/11 00:16:06;;;;;;;;;;;;;;;8.50;71.38;93202.81;5113809;28;20018;-75
2021/04/11 00:18:33;;;;;;;;;;;;;;;8.37;72.21;93209.81;5113961;28;19930;-76
2021/04/11 00:20:59;;;;;;;;;;;;;;;8.36;73.20;93203.81;5113617;28;19923;-76
2021/04/11 00:23:25;;;;;;;;;;;;;;;8.22;74.02;93212.63;5113912;28;20379;-75
2021/04/11 00:25:51;;;;;;;;;;;;;;;8.24;74.57;93210.63;5113820;28;19923;-75
2021/04/11 00:28:17;;;;;;;;;;;;;;;8.12;76.99;93213.00;5113785;28;19931;-76
2021/04/11 00:30:44;;;;;;;;;;;;;;;7.99;76.62;93206.00;5113525;28;19924;-75
2021/04/11 00:33:20;;;;;;;;;;;;;;;8.05;75.91;93202.59;5113937;28;19931;-76
2021/04/11 00:35:51;;;;;;;;;;;;;;;8.07;75.57;93205.81;5113843;28;20018;-75
2021/04/11 00:38:17;;;;;;;;;;;;;;;8.19;74.42;93205.22;5113859;28;19976;-76
2021/04/11 00:40:43;;;;;;;;;;;;;;;8.07;74.48;93198.00;5113613;28;19928;-76
2021/04/11 00:43:11;;;;;;;;;;;;;;;8.07;74.61;93195.41;5113461;28;19924;-75
2021/04/11 00:45:39;;;;;;;;;;;;;;;7.97;74.20;93189.81;5113746;28;19924;-76
2021/04/11 00:48:06;;;;;;;;;;;;;;;8.08;75.51;93180.63;5113533;28;19946;-76
2021/04/11 00:50:32;;;;;;;;;;;;;;;8.03;76.03;93186.41;5113701;28;19930;-75
2021/04/11 00:52:59;;;;;;;;;;;;;;;7.96;76.56;93180.41;5113453;28;19923;-75
2021/04/11 00:55:26;;;;;;;;;;;;;;;7.80;77.55;93178.19;5113506;28;19924;-76
2021/04/11 00:57:53;;;;;;;;;;;;;;;7.73;78.01;93170.41;5113380;28;19930;-75
2021/04/11 01:00:21;;;;;;;;;;;;;;;7.83;77.55;93175.19;5113507;28;19924;-75
2021/04/11 01:02:47;;;;;;;;;;;;;;;7.66;78.62;93178.19;5115826;28;19981;-76
2021/04/11 01:05:14;;;;;;;;;;;;;;;7.86;77.49;93170.41;5117510;28;19923;-75
2021/04/11 01:07:41;;;;;;;;;;;;;;;7.83;77.11;93162.19;5117348;28;20274;-75
2021/04/11 01:10:10;;;;;;;;;;;;;;;7.92;78.51;93167.00;5117197;28;20370;-75
2021/04/11 01:12:36;;;;;;;;;;;;;;;7.74;80.10;93166.78;5117503;28;19977;-75
2021/04/11 01:15:02;;;;;;;;;;;;;;;7.54;80.06;93161.56;5117385;28;19935;-75
2021/04/11 01:17:28;;;;;;;;;;;;;;;7.54;80.08;93154.59;5117296;28;20014;-75
2021/04/11 01:19:54;;;;;;;;;;;;;;;7.60;80.43;93158.97;5116489;28;19947;-75
2021/04/11 01:22:23;;;;;;;;;;;;;;;7.47;81.09;93147.78;5117011;28;19924;-76
2021/04/11 01:24:51;;;;;;;;;;;;;;;7.49;80.65;93156.94;5116876;28;19924;-76
2021/04/11 01:27:18;;;;;;;;;;;;;;;7.38;80.52;93160.94;5117227;28;19930;-75
2021/04/11 01:29:44;;;;;;;;;;;;;;;7.36;82.22;93164.72;5117024;28;19924;-75
2021/04/11 01:32:11;;;;;;;;;;;;;;;7.34;81.40;93157.13;5117012;28;19950;-76
2021/04/11 01:34:38;;;;;;;;;;;;;;;7.40;81.62;93152.94;5117129;28;19924;-76
2021/04/11 01:37:05;;;;;;;;;;;;;;;7.61;80.12;93146.81;5116907;28;19924;-75
2021/04/11 01:39:35;;;;;;;;;;;;;;;7.67;81.14;93148.59;5116682;28;19924;-75
2021/04/11 01:42:02;;;;;;;;;;;;;;;7.62;81.48;93150.19;5116718;28;20023;-75
2021/04/11 01:44:30;;;;;;;;;;;;;;;7.62;81.39;93140.59;5116721;28;19924;-75
2021/04/11 01:46:56;;;;;;;;;;;;;;;7.67;81.63;93134.81;5116705;28;19924;-75
2021/04/11 01:49:23;;;;;;;;;;;;;;;7.86;81.06;93134.03;5116473;28;19924;-75
2021/04/11 01:51:52;;;;;;;;;;;;;;;7.75;81.02;93135.41;5116436;28;20010;-76
2021/04/11 01:54:20;;;;;;;;;;;;;;;7.80;80.14;93129.63;5116442;28;19923;-75
2021/04/11 01:56:47;;;;;;;;;;;;;;;7.87;79.74;93124.44;5116382;28;20408;-75
2021/04/11 01:59:15;;;;;;;;;;;;;;;7.74;80.57;93131.22;5116251;28;19924;-75
2021/04/11 02:01:41;;;;;;;;;;;;;;;7.82;80.28;93126.81;5116338;28;19928;-75
2021/04/11 02:04:08;;;;;;;;;;;;;;;7.78;82.40;93127.22;5116305;28;20370;-75
2021/04/11 02:06:34;;;;;;;;;;;;;;;7.57;82.64;93130.78;5116074;28;20271;-75
2021/04/11 02:09:04;;;;;;;;;;;;;;;7.62;82.02;93130.19;5116310;28;19924;-75
2021/04/11 02:11:30;;;;;;;;;;;;;;;7.60;81.81;93127.81;5116555;28;19924;-75
2021/04/11 02:13:58;;;;;;;;;;;;;;;7.68;81.67;93128.63;5115796;28;19970;-76
2021/04/11 02:16:26;;;;;;;;;;;;;;;7.84;82.67;93117.03;5116053;28;19931;-76
2021/04/11 02:18:57;;;;;;;;;;;;;;;7.78;81.92;93119.44;5115925;28;19928;-76
2021/04/11 02:21:24;;;;;;;;;;;;;;;7.81;81.23;93117.41;5115674;28;19942;-76
2021/04/11 02:23:49;;;;;;;;;;;;;;;7.96;80.53;93121.44;5116022;28;19939;-75
2021/04/11 02:26:15;;;;;;;;;;;;;;;7.93;81.21;93116.63;5115934;28;19931;-76
2021/04/11 02:28:41;;;;;;;;;;;;;;;7.96;80.69;93112.84;5115899;28;19949;-75
2021/04/11 02:31:17;;;;;;;;;;;;;;;7.94;81.24;93114.81;5115713;28;19924;-76
2021/04/11 02:33:52;;;;;;;;;;;;;;;8.12;79.48;93103.81;5115743;28;19954;-76
2021/04/11 02:36:19;;;;;;;;;;;;;;;8.15;80.02;93109.41;5115930;28;20332;-76
2021/04/11 02:38:45;;;;;;;;;;;;;;;8.29;79.64;93109.38;5115671;28;19923;-76
2021/04/11 02:41:12;;;;;;;;;;;;;;;8.15;81.56;93103.41;5115559;28;20285;-75
2021/04/11 02:43:38;;;;;;;;;;;;;;;8.03;83.15;93102.44;5115490;28;20010;-75
2021/04/11 02:46:05;;;;;;;;;;;;;;;8.04;81.31;93101.44;5115301;28;20022;-75
2021/04/11 02:48:30;;;;;;;;;;;;;;;8.05;81.39;93101.22;5115322;28;19931;-75
2021/04/11 02:50:57;;;;;;;;;;;;;;;8.14;81.46;93100.03;5115472;28;19927;-75
2021/04/11 02:53:26;;;;;;;;;;;;;;;8.34;79.48;93100.00;5115370;28;19927;-75
2021/04/11 02:55:53;;;;;;;;;;;;;;;8.36;79.08;93094.59;5115343;28;19927;-75
2021/04/11 02:58:21;;;;;;;;;;;;;;;8.21;81.46;93099.19;5115141;28;20394;-75
2021/04/11 03:00:50;;;;;;;;;;;;;;;8.12;81.53;93104.59;5114958;28;19927;-75
2021/04/11 03:03:16;;;;;;;;;;;;;;;8.27;80.94;93091.38;5115086;28;19924;-75
2021/04/11 03:05:41;;;;;;;;;;;;;;;8.22;81.48;93098.22;5115161;28;19930;-75
2021/04/11 03:08:10;;;;;;;;;;;;;;;8.10;81.81;93095.44;5115142;28;19924;-75
2021/04/11 03:10:44;;;;;;;;;;;;;;;8.37;79.77;93096.16;5114957;28;20271;-75
2021/04/11 03:13:11;;;;;;;;;;;;;;;8.38;79.34;93094.38;5114879;28;19928;-75
2021/04/11 03:15:37;;;;;;;;;;;;;;;8.42;79.35;93100.78;5114996;28;19976;-75
2021/04/11 03:18:03;;;;;;;;;;;;;;;8.38;79.92;93097.78;5114751;28;19931;-75
2021/04/11 03:20:32;;;;;;;;;;;;;;;8.37;79.32;93092.78;5114386;28;19924;-76
2021/04/11 03:23:00;;;;;;;;;;;;;;;8.49;79.78;93081.59;5114178;28;20382;-75
2021/04/11 03:25:27;;;;;;;;;;;;;;;8.51;78.44;93089.97;5113969;28;19985;-75
2021/04/11 03:27:56;;;;;;;;;;;;;;;8.51;78.84;93082.16;5114566;28;19970;-76
2021/04/11 03:30:23;;;;;;;;;;;;;;;8.44;79.93;93083.19;5114672;28;19923;-75
2021/04/11 03:32:51;;;;;;;;;;;;;;;8.78;75.84;93076.09;5114641;28;20445;-75
2021/04/11 03:35:19;;;;;;;;;;;;;;;8.81;77.59;93079.06;5114461;28;19949;-75
2021/04/11 03:37:46;;;;;;;;;;;;;;;8.81;77.54;93080.84;5114502;28;20289;-75
2021/04/11 03:40:13;;;;;;;;;;;;;;;8.77;77.10;93079.69;5114278;28;19976;-75
2021/04/11 03:42:45;;;;;;;;;;;;;;;8.73;77.79;93084.50;5114449;28;19931;-75
2021/04/11 03:45:11;;;;;;;;;;;;;;;8.69;77.81;93078.09;5114497;28;20033;-75
2021/04/11 03:47:39;;;;;;;;;;;;;;;8.77;77.00;93079.69;5114192;28;19947;-75
2021/04/11 03:50:08;;;;;;;;;;;;;;;8.84;75.68;93076.06;5114240;28;19924;-75
2021/04/11 03:52:37;;;;;;;;;;;;;;;8.95;75.01;93081.59;5114200;28;19930;-75
2021/04/11 03:55:06;;;;;;;;;;;;;;;8.91;76.32;93077.81;5114028;28;19928;-75
2021/04/11 03:57:37;;;;;;;;;;;;;;;8.68;78.04;93085.09;5114324;28;20010;-75
2021/04/11 04:00:11;;;;;;;;;;;;;;;8.57;78.88;93090.94;5113980;28;19932;-75
2021/04/11 04:02:40;;;;;;;;;;;;;;;8.52;78.98;93082.97;5113895;28;19924;-74
2021/04/11 04:05:20;;;;;;;;;;;;;;;8.44;80.16;93088.38;5113980;28;19974;-75
2021/04/11 04:07:47;;;;;;;;;;;;;;;8.34;80.06;93086.16;5114133;28;19946;-75
2021/04/11 04:10:14;;;;;;;;;;;;;;;8.31;80.11;93083.97;5114036;28;20014;-75
2021/04/11 04:12:48;;;;;;;;;;;;;;;8.46;79.47;93089.78;5113968;28;19924;-75
2021/04/11 04:15:27;;;;;;;;;;;;;;;8.50;79.62;93085.75;5113825;28;20484;-75
2021/04/11 04:18:02;;;;;;;;;;;;;;;8.48;79.19;93087.78;5113758;28;20399;-75
2021/04/11 04:20:40;;;;;;;;;;;;;;;8.35;79.83;93092.97;5113847;28;19923;-75
2021/04/11 04:23:11;;;;;;;;;;;;;;;8.24;80.77;93091.00;5113938;28;19928;-75
2021/04/11 04:25:48;;;;;;;;;;;;;;;8.31;79.86;93094.38;5113783;28;19924;-75
2021/04/11 04:28:20;;;;;;;;;;;;;;;8.51;78.27;93094.38;5113673;28;19970;-75
2021/04/11 04:30:51;;;;;;;;;;;;;;;8.37;78.32;93090.97;5113650;28;19924;-75
2021/04/11 04:33:30;;;;;;;;;;;;;;;8.29;80.04;93093.78;5113665;28;20423;-76
2021/04/11 04:36:02;;;;;;;;;;;;;;;8.25;80.79;93092.59;5114632;28;19931;-75
2021/04/11 04:38:31;;;;;;;;;;;;;;;8.21;81.64;93096.59;5117907;28;19981;-75
2021/04/11 04:41:03;;;;;;;;;;;;;;;8.31;81.11;93094.38;5117990;27;19924;-75
2021/04/11 04:43:32;;;;;;;;;;;;;;;8.27;81.69;93090.59;5118038;28;19923;-75
2021/04/11 04:46:08;;;;;;;;;;;;;;;8.14;81.97;93087.03;5117730;28;19924;-75
2021/04/11 04:48:41;;;;;;;;;;;;;;;8.11;82.60;93091.81;5117917;28;19924;-75
2021/04/11 04:51:13;;;;;;;;;;;;;;;8.03;83.06;93094.66;5117722;28;20014;-75
2021/04/11 04:53:43;;;;;;;;;;;;;;;8.03;81.42;93092.84;5117811;28;19923;-75
2021/04/11 04:56:13;;;;;;;;;;;;;;;8.17;81.44;93092.81;5117668;28;19924;-75
2021/04/11 04:58:41;;;;;;;;;;;;;;;8.09;81.26;93083.41;5117536;28;19923;-75
2021/04/11 05:01:12;;;;;;;;;;;;;;;7.91;80.90;93079.66;5117432;28;19923;-75
2021/04/11 05:03:38;;;;;;;;;;;;;;;7.83;80.42;93081.63;5117355;28;19923;-75
2021/04/11 05:06:07;;;;;;;;;;;;;;;8.02;82.04;93087.84;5117359;28;19924;-75
2021/04/11 05:08:37;;;;;;;;;;;;;;;8.06;80.50;93089.84;5117384;28;19935;-76
2021/04/11 05:11:07;;;;;;;;;;;;;;;8.05;83.09;93084.84;5117407;28;19934;-75
2021/04/11 05:13:35;;;;;;;;;;;;;;;7.99;82.52;93083.81;5117157;28;20390;-75
2021/04/11 05:16:04;;;;;;;;;;;;;;;7.90;84.29;93098.03;5117071;28;19924;-76
2021/04/11 05:18:33;;;;;;;;;;;;;;;7.74;85.04;93087.06;5117285;28;19977;-75
2021/04/11 05:21:04;;;;;;;;;;;;;;;7.73;86.72;93085.44;5116440;28;19924;-76
2021/04/11 05:23:31;;;;;;;;;;;;;;;7.84;85.01;93091.03;5117232;28;19927;-76
2021/04/11 05:26:03;;;;;;;;;;;;;;;7.73;85.72;93095.84;5117012;28;19924;-76
2021/04/11 05:28:33;;;;;;;;;;;;;;;7.75;84.93;93093.84;5116914;28;19924;-76
2021/04/11 05:31:04;;;;;;;;;;;;;;;7.97;83.01;93091.81;5116767;28;19923;-75
2021/04/11 05:33:30;;;;;;;;;;;;;;;8.25;81.41;93090.00;5117019;28;19923;-75
2021/04/11 05:36:00;;;;;;;;;;;;;;;8.28;82.22;93092.22;5116660;28;19931;-75
2021/04/11 05:38:30;;;;;;;;;;;;;;;8.33;82.13;93095.78;5116891;28;20022;-75
2021/04/11 05:40:59;;;;;;;;;;;;;;;8.52;82.07;93094.16;5116586;28;19959;-75
2021/04/11 05:43:31;;;;;;;;;;;;;;;8.69;81.02;93104.13;5116520;28;19948;-75
2021/04/11 05:46:01;;;;;;;;;;;;;;;8.66;82.02;93104.53;5116387;28;19924;-75
2021/04/11 05:48:31;;;;;;;;;;;;;;;8.78;80.21;93097.69;5115793;28;19924;-75
2021/04/11 05:51:00;;;;;;;;;;;;;;;8.79;79.35;93107.09;5116601;28;19930;-75
2021/04/11 05:53:30;;;;;;;;;;;;;;;8.84;79.94;93096.88;5116360;28;19950;-75
2021/04/11 05:55:57;;;;;;;;;;;;;;;8.86;80.25;93104.47;5116510;28;19923;-75
2021/04/11 05:58:24;;;;;;;;;;;;;;;8.83;80.10;93105.69;5116473;28;19928;-75
2021/04/11 06:00:53;;;;;;;;;;;;;;;8.89;78.36;93099.66;5116400;28;19923;-75
2021/04/11 06:03:21;;;;;;;;;;;;;;;8.87;79.28;93098.25;5116189;28;20310;-75
2021/04/11 06:05:54;;;;;;;;;;;;;;;8.96;78.76;93098.81;5116280;28;19947;-76
2021/04/11 06:08:31;;;;;;;;;;;;;;;9.13;78.22;93094.72;5116099;28;19928;-75
2021/04/11 06:10:59;;;;;;;;;;;;;;;9.30;76.75;93094.25;5116266;28;19931;-75
2021/04/11 06:13:30;;;;;;;;;;;;;;;9.47;76.65;93097.94;5116184;28;19954;-76
2021/04/11 06:15:59;;;;;;;;;;;;;;;9.65;76.24;93089.41;5116050;28;19947;-76
2021/04/11 06:18:25;;;;;;;;;;;;;;;9.83;73.36;93088.66;5115987;28;19993;-76
2021/04/11 06:20:54;;;;;;;;;;;;;;;9.95;74.45;93091.38;5115551;28;20375;-75
2021/04/11 06:23:24;;;;;;;;;;;;;;;10.13;74.50;93088.03;5116082;28;19924;-76
2021/04/11 06:25:54;;;;;;;;;;;;;;;10.30;70.65;93094.28;5115695;28;19969;-76
2021/04/11 06:28:23;;;;;;;;;;;;;;;10.62;71.60;93086.34;5115873;28;19924;-76
2021/04/11 06:30:53;;;;;;;;;;;;;;;10.82;68.13;93090.56;5115762;28;19931;-76
2021/04/11 06:33:22;;;;;;;;;;;;;;;11.19;66.80;93088.72;5115647;28;19935;-76
2021/04/11 06:35:50;;;;;;;;;;;;;;;11.54;66.67;93076.75;5115769;28;19924;-76
2021/04/11 06:38:19;;;;;;;;;;;;;;;11.91;71.21;93084.47;5115479;28;20401;-76
2021/04/11 06:40:58;;;;;;;;;;;;;;;12.13;67.05;93085.53;5115556;28;19924;-76
2021/04/11 06:43:42;;;;;;;;;;;;;;;12.30;64.55;93074.38;5115411;28;19928;-76
2021/04/11 06:46:16;;;;;;;;;;;;;;;12.45;63.98;93089.63;5115696;28;19924;-76
2021/04/11 06:48:56;;;;;;;;;;;;;;;12.28;61.19;93079.06;5115507;28;19931;-76
2021/04/11 06:51:34;;;;;;;;;;;;;;;12.29;59.25;93084.06;5097927;28;19924;-76
2021/04/11 06:54:19;;;;;;;;;;;;;;;12.35;60.15;93087.59;5115012;28;19924;-75
2021/04/11 06:56:51;;;;;;;;;;;;;;;12.54;55.50;93083.81;5115357;28;19977;-75
2021/04/11 06:59:27;;;;;;;;;;;;;;;12.78;56.28;93078.53;5114406;28;19924;-76
2021/04/11 07:02:04;;;;;;;;;;;;;;;12.96;55.39;93078.38;5115176;28;19932;-76
2021/04/11 07:04:48;;;;;;;;;;;;;;;13.11;54.04;93077.09;5114968;28;19975;-76
2021/04/11 07:07:32;;;;;;;;;;;;;;;13.41;53.55;93078.72;5115158;28;19924;-76
2021/04/11 07:10:06;;;;;;;;;;;;;;;13.41;53.74;93073.47;5114945;28;19931;-76
2021/04/11 07:13:06;;;;;;;;;;;;;;;13.47;55.82;93078.56;5114944;28;19924;-76
2021/04/11 07:15:45;;;;;;;;;;;;;;;13.57;55.13;93072.69;5114867;28;20382;-76
2021/04/11 07:18:29;;;;;;;;;;;;;;;13.59;54.67;93078.53;5114998;28;19924;-76
2021/04/11 07:21:09;;;;;;;;;;;;;;;13.72;51.84;93074.00;5114437;28;19969;-75
2021/04/11 07:23:53;;;;;;;;;;;;;;;13.97;52.50;93082.28;5114949;28;20015;-75
2021/04/11 07:26:24;;;;;;;;;;;;;;;14.24;53.31;93071.94;5114302;28;19971;-76
2021/04/11 07:28:56;;;;;;;;;;;;;;;14.24;50.76;93084.28;5114735;28;19924;-76
2021/04/11 07:31:34;;;;;;;;;;;;;;;14.25;52.76;93083.22;5114545;28;19930;-76
2021/04/11 07:34:12;;;;;;;;;;;;;;;14.51;51.75;93079.13;5114814;28;19924;-76
2021/04/11 07:36:41;;;;;;;;;;;;;;;14.30;52.24;93080.66;5114516;28;20377;-76
2021/04/11 07:39:15;;;;;;;;;;;;;;;14.30;52.77;93083.28;5114516;28;19931;-75
2021/04/11 07:41:53;;;;;;;;;;;;;;;14.34;54.32;93086.22;5114396;28;19924;-75
2021/04/11 07:44:33;;;;;;;;;;;;;;;14.56;53.80;93083.69;5114553;28;19923;-75
2021/04/11 07:47:12;;;;;;;;;;;;;;;14.50;53.62;93092.50;5090922;28;19931;-76
2021/04/11 07:49:45;;;;;;;;;;;;;;;14.53;54.28;93086.78;5114268;28;20397;-75
2021/04/11 07:52:19;;;;;;;;;;;;;;;14.11;54.78;93079.34;5114163;28;19931;-75
2021/04/11 07:54:46;;;;;;;;;;;;;;;13.84;54.69;93082.59;5114459;28;19970;-75
2021/04/11 07:57:36;;;;;;;;;;;;;;;14.07;55.03;93084.25;5114366;28;19924;-76
2021/04/11 08:00:07;;;;;;;;;;;;;;;14.65;51.68;93087.50;5114262;28;20287;-75
2021/04/11 08:02:48;;;;;;;;;;;;;;;15.21;53.23;93089.25;5113957;28;19927;-75
2021/04/11 08:05:21;;;;;;;;;;;;;;;15.15;51.65;93091.81;5112942;28;19924;-76
2021/04/11 08:07:56;;;;;;;;;;;;;;;14.94;52.41;93089.97;5114139;28;19928;-76
2021/04/11 08:10:39;;;;;;;;;;;;;;;15.17;52.49;93095.00;5113856;28;19923;-76
2021/04/11 08:13:10;;;;;;;;;;;;;;;15.26;50.28;93084.03;5113838;28;19962;-76
2021/04/11 08:15:41;;;;;;;;;;;;;;;15.56;51.56;93085.41;5113880;28;20486;-76
2021/04/11 08:18:26;;;;;;;;;;;;;;;15.50;50.44;93084.53;5113957;28;19924;-76
2021/04/11 08:21:06;;;;;;;;;;;;;;;15.60;49.43;93086.47;5107010;28;19963;-76
2021/04/11 08:23:57;;;;;;;;;;;;;;;16.35;49.69;93083.97;5113082;28;21379;-76
2021/04/11 08:26:30;;;;;;;;;;;;;;;16.66;48.40;93071.78;5113978;28;20027;-76
2021/04/11 08:29:07;;;;;;;;;;;;;;;16.60;48.18;93078.88;5113868;28;19930;-76
2021/04/11 08:31:56;;;;;;;;;;;;;;;16.59;46.18;93073.88;5113745;28;19941;-76
2021/04/11 08:34:38;;;;;;;;;;;;;;;17.17;49.47;93071.28;5113945;28;19984;-75
2021/04/11 08:37:30;;;;;;;;;;;;;;;17.14;46.13;93077.84;5113770;28;20278;-76
2021/04/11 08:40:03;;;;;;;;;;;;;;;17.29;47.24;93069.19;5113639;28;19931;-76
2021/04/11 08:42:46;;;;;;;;;;;;;;;16.89;45.25;93065.34;5113542;28;19981;-76
2021/04/11 08:45:20;;;;;;;;;;;;;;;17.00;50.07;93069.63;5113949;28;19938;-77
2021/04/11 08:47:54;;;;;;;;;;;;;;;17.22;48.70;93063.38;5113508;28;19931;-75
2021/04/11 08:50:21;;;;;;;;;;;;;;;17.38;47.60;93064.97;5113583;28;19930;-76
2021/04/11 08:52:58;;;;;;;;;;;;;;;16.95;45.25;93074.88;5113351;28;19928;-76
2021/04/11 08:55:32;;;;;;;;;;;;;;;16.99;45.58;93060.09;5113444;28;20278;-76
2021/04/11 08:58:12;;;;;;;;;;;;;;;17.21;43.14;93064.41;5113449;28;20445;-75
2021/04/11 09:00:42;;;;;;;;;;;;;;;17.38;45.47;93064.97;5113783;28;19930;-75
2021/04/11 09:03:24;;;;;;;;;;;;;;;17.48;45.07;93066.06;5113306;28;19924;-76
2021/04/11 09:06:00;;;;;;;;;;;;;;;17.32;43.78;93068.69;5114179;28;20310;-75
2021/04/11 09:08:30;;;;;;;;;;;;;;;16.63;45.56;93067.03;5113061;28;19928;-76
2021/04/11 09:11:03;;;;;;;;;;;;;;;16.68;43.40;93064.41;5113373;28;19924;-76
2021/04/11 09:13:34;;;;;;;;;;;;;;;16.32;46.12;93066.03;5113270;28;19930;-75
2021/04/11 09:16:03;;;;;;;;;;;;;;;16.69;45.54;93062.59;5113555;28;19969;-79
2021/04/11 09:18:37;;;;;;;;;;;;;;;16.93;47.51;93065.63;5113428;28;19989;-76
2021/04/11 09:21:09;;;;;;;;;;;;;;;16.56;45.30;93061.97;5113028;28;19924;-76
2021/04/11 09:23:42;;;;;;;;;;;;;;;16.79;44.34;93063.41;5114532;28;19924;-75
2021/04/11 09:26:19;;;;;;;;;;;;;;;16.69;43.63;93059.94;5116960;28;19966;-75
2021/04/11 09:28:49;;;;;;;;;;;;;;;16.76;44.57;93065.78;5116912;28;20034;-76
2021/04/11 09:31:32;;;;;;;;;;;;;;;16.87;44.78;93070.09;5116993;28;19969;-76
2021/04/11 09:34:16;;;;;;;;;;;;;;;16.62;44.08;93073.34;5116587;28;19978;-76
2021/04/11 09:36:52;;;;;;;;;;;;;;;16.58;44.27;93075.69;5116772;28;19924;-75
2021/04/11 09:39:29;;;;;;;;;;;;;;;16.72;45.93;93059.41;5116937;28;20006;-76
2021/04/11 09:42:08;;;;;;;;;;;;;;;17.02;45.64;93064.88;5116649;28;20298;-75
2021/04/11 09:44:43;;;;;;;;;;;;;;;17.82;42.24;93061.13;5116754;28;19973;-76
2021/04/11 09:47:24;;;;;;;;;;;;;;;17.82;41.71;93065.59;5116741;28;20283;-76
2021/04/11 09:49:56;;;;;;;;;;;;;;;17.60;43.81;93063.97;5113103;28;19930;-76
2021/04/11 09:52:33;;;;;;;;;;;;;;;17.61;42.85;93070.84;5116619;28;19924;-76
2021/04/11 09:55:07;;;;;;;;;;;;;;;17.59;45.93;93070.31;5116538;28;19930;-76
2021/04/11 09:57:42;;;;;;;;;;;;;;;17.70;42.05;93069.28;5116646;28;19924;-76
2021/04/11 10:00:23;;;;;;;;;;;;;;;17.83;42.78;93065.31;5116544;28;19924;-76
2021/04/11 10:03:07;;;;;;;;;;;;;;;17.41;43.50;93060.25;5112994;28;19924;-76
2021/04/11 10:05:40;;;;;;;;;;;;;;;17.52;42.61;93061.84;5102387;28;20267;-76
2021/04/11 10:08:14;;;;;;;;;;;;;;;17.57;43.17;93059.25;5116214;28;20362;-76
2021/04/11 10:10:48;;;;;;;;;;;;;;;17.78;43.53;93056.63;5116303;28;20181;-76
2021/04/11 10:13:41;;;;;;;;;;;;;;;18.03;43.10;93056.66;5116147;28;19930;-75
2021/04/11 10:16:17;;;;;;;;;;;;;;;18.23;44.23;93055.06;5078766;28;19923;-76
2021/04/11 10:18:54;;;;;;;;;;;;;;;17.85;43.58;93062.44;5115703;28;20367;-76
2021/04/11 10:21:26;;;;;;;;;;;;;;;17.71;43.91;93057.66;5113888;27;19924;-76
2021/04/11 10:24:08;;;;;;;;;;;;;;;17.86;42.81;93054.25;5115628;28;19931;-76
2021/04/11 10:26:39;;;;;;;;;;;;;;;17.98;42.67;93053.22;5113973;28;19931;-76
2021/04/11 10:29:06;;;;;;;;;;;;;;;17.22;44.92;93046.72;5115877;28;20515;-76
2021/04/11 10:31:36;;;;;;;;;;;;;;;17.69;43.71;93051.84;5115774;28;19923;-77
2021/04/11 10:34:07;;;;;;;;;;;;;;;17.53;43.42;93053.66;5115525;28;20328;-76
2021/04/11 10:36:36;;;;;;;;;;;;;;;17.48;46.07;93044.97;5115845;28;20012;-75
2021/04/11 10:39:06;;;;;;;;;;;;;;;17.67;44.17;93047.88;5115521;28;19931;-76
2021/04/11 10:41:45;;;;;;;;;;;;;;;17.92;46.18;93050.59;5114917;28;19923;-76
2021/04/11 10:44:36;;;;;;;;;;;;;;;17.61;43.77;93043.66;5115425;28;19969;-76
2021/04/11 10:47:20;;;;;;;;;;;;;;;17.62;43.59;93043.41;5115293;28;19931;-76
2021/04/11 10:49:54;;;;;;;;;;;;;;;17.33;43.01;93056.25;5074099;28;20366;-76
2021/04/11 10:52:26;;;;;;;;;;;;;;;17.03;47.85;93047.19;5115516;28;19924;-76
2021/04/11 10:55:10;;;;;;;;;;;;;;;17.17;45.03;93048.31;5101003;28;19924;-76
2021/04/11 10:57:50;;;;;;;;;;;;;;;17.27;46.38;93052.84;5104262;28;19924;-77
2021/04/11 11:00:23;;;;;;;;;;;;;;;17.56;44.25;93049.72;5111212;28;19930;-76
2021/04/11 11:03:04;;;;;;;;;;;;;;;17.21;47.26;93048.59;5114982;28;20344;-76
2021/04/11 11:05:59;;;;;;;;;;;;;;;17.30;47.02;93044.41;5115171;28;19927;-76
2021/04/11 11:08:49;;;;;;;;;;;;;;;17.11;47.17;93045.91;5032387;28;19925;-76
2021/04/11 11:11:33;;;;;;;;;;;;;;;17.44;45.65;93054.47;5032151;28;19925;-76
2021/04/11 11:14:13;;;;;;;;;;;;;;;17.11;44.56;93056.47;5032116;28;19925;-76
2021/04/11 11:17:00;;;;;;;;;;;;;;;16.92;46.49;93050.84;5072003;28;20018;-76
2021/04/11 11:19:36;;;;;;;;;;;;;;;17.30;46.22;93038.31;5107853;28;20289;-75
2021/04/11 11:22:07;;;;;;;;;;;;;;;17.84;46.67;93037.09;5114568;28;20015;-75
2021/04/11 11:24:48;;;;;;;;;;;;;;;17.54;43.73;93038.63;5114787;28;19932;-76
2021/04/11 11:27:22;;;;;;;;;;;;;;;17.06;46.51;93044.03;5114929;28;19971;-77
2021/04/11 11:30:03;;;;;;;;;;;;;;;17.27;45.84;93049.38;5113997;28;19931;-77
2021/04/11 11:32:31;;;;;;;;;;;;;;;17.16;44.62;93038.03;5114534;28;19977;-76
2021/04/11 11:35:01;;;;;;;;;;;;;;;17.05;43.79;93041.66;5114419;28;19923;-77
2021/04/11 11:37:32;;;;;;;;;;;;;;;17.08;46.37;93035.88;5114319;28;19931;-76
2021/04/11 11:40:06;;;;;;;;;;;;;;;17.34;45.37;93034.13;5114591;28;19923;-76
2021/04/11 11:42:34;;;;;;;;;;;;;;;17.05;45.60;93028.47;5114137;28;20389;-75
2021/04/11 11:45:05;;;;;;;;;;;;;;;17.05;45.77;93033.75;5114037;28;20392;-76
2021/04/11 11:47:35;;;;;;;;;;;;;;;16.83;46.36;93024.94;5114034;28;19931;-76
2021/04/11 11:50:05;;;;;;;;;;;;;;;16.74;45.53;93034.41;5113979;28;19928;-75
2021/04/11 11:52:39;;;;;;;;;;;;;;;17.05;45.67;93024.00;5113106;28;19923;-76
2021/04/11 11:55:12;;;;;;;;;;;;;;;17.57;43.94;93025.72;5113576;28;19924;-76
2021/04/11 11:57:40;;;;;;;;;;;;;;;17.62;44.66;93024.13;5111103;28;20378;-75
2021/04/11 12:00:11;;;;;;;;;;;;;;;17.85;44.98;93026.28;5113525;28;20379;-76
2021/04/11 12:02:48;;;;;;;;;;;;;;;17.97;46.44;93020.75;5114134;28;19924;-76
2021/04/11 12:05:19;;;;;;;;;;;;;;;17.87;43.99;93020.72;5114221;28;19928;-76
2021/04/11 12:07:47;;;;;;;;;;;;;;;17.78;44.29;93025.72;5113922;28;19924;-75
2021/04/11 12:10:20;;;;;;;;;;;;;;;18.23;45.93;93024.13;5113847;28;20123;-75
2021/04/11 12:13:09;;;;;;;;;;;;;;;18.39;46.12;93021.50;5113462;28;19928;-76
2021/04/11 12:15:42;;;;;;;;;;;;;;;18.17;41.39;93025.22;5093214;28;20380;-75
2021/04/11 12:18:09;;;;;;;;;;;;;;;18.11;42.28;93027.06;5113818;28;19924;-76
2021/04/11 12:20:43;;;;;;;;;;;;;;;18.43;46.16;93012.75;5113551;28;19924;-76
2021/04/11 12:23:14;;;;;;;;;;;;;;;18.71;41.93;93017.72;5113610;28;19923;-76
2021/04/11 12:25:40;;;;;;;;;;;;;;;19.18;41.22;93017.25;5114011;28;19928;-75
2021/04/11 12:28:12;;;;;;;;;;;;;;;18.59;43.17;93005.56;5113894;28;19930;-77
2021/04/11 12:30:40;;;;;;;;;;;;;;;18.68;40.91;93009.25;5113904;28;20026;-77
2021/04/11 12:33:13;;;;;;;;;;;;;;;19.01;42.23;93011.53;5113645;28;19931;-76
2021/04/11 12:35:44;;;;;;;;;;;;;;;19.74;40.62;93007.41;5113608;28;19969;-76
2021/04/11 12:38:14;;;;;;;;;;;;;;;19.71;38.91;93010.63;5113885;28;19939;-75
2021/04/11 12:40:43;;;;;;;;;;;;;;;20.83;41.52;93002.75;5113750;28;19923;-76
2021/04/11 12:43:13;;;;;;;;;;;;;;;21.20;36.13;93003.88;5113452;28;20366;-77
2021/04/11 12:45:43;;;;;;;;;;;;;;;20.69;37.02;93006.06;5113540;28;20434;-76
2021/04/11 12:48:16;;;;;;;;;;;;;;;19.71;37.35;93000.81;5113467;28;20351;-76
2021/04/11 12:50:47;;;;;;;;;;;;;;;19.19;38.03;92997.69;5113940;28;19924;-78
2021/04/11 12:53:17;;;;;;;;;;;;;;;19.48;38.65;92999.63;5113702;28;19976;-76
2021/04/11 12:55:50;;;;;;;;;;;;;;;20.18;36.79;93006.53;5113411;28;19931;-76
2021/04/11 12:58:21;;;;;;;;;;;;;;;20.03;38.75;92998.72;5116568;28;19923;-76
2021/04/11 13:00:53;;;;;;;;;;;;;;;19.85;37.80;93001.00;5117505;28;19934;-76
2021/04/11 13:03:20;;;;;;;;;;;;;;;20.40;34.22;93005.28;5117449;28;20405;-75
2021/04/11 13:05:49;;;;;;;;;;;;;;;19.83;36.40;93005.00;5117340;28;19928;-75
2021/04/11 13:08:18;;;;;;;;;;;;;;;19.82;36.24;92998.91;5117286;28;19930;-75
2021/04/11 13:10:48;;;;;;;;;;;;;;;19.42;37.04;92998.88;5117426;28;19932;-75
2021/04/11 13:13:20;;;;;;;;;;;;;;;19.63;37.15;92987.38;5117369;28;20302;-75
2021/04/11 13:15:50;;;;;;;;;;;;;;;20.31;38.03;92992.63;5117430;28;20006;-76
2021/04/11 13:18:20;;;;;;;;;;;;;;;20.60;37.42;92977.75;5117167;28;20263;-76